sensor_id;sensor_type;location;lat;lon;timestamp;temperature;humidity
19888;DHT22;10106;51.332;12.336;2023-08-17T05:08:10;18.20;99.90
19888;DHT22;10106;51.332;12.336;2023-08-17T05:10:35;18.40;99.90
19888;DHT22;10106;51.332;12.336;2023-08-17T05:13:01;18.30;99.90
19888;DHT22;10106;51.332;12.336;2023-08-17T05:15:26;18.50;99.90
19888;DHT22;10106;51.332;12.336;2023-08-17T05:17:52;18.40;99.90
19888;DHT22;10106;51.332;12.336;2023-08-17T05:20:18;18.40;99.90
19888;DHT22;10106;51.332;12.336;2023-08-17T05:22:46;18.60;99.90
19888;DHT22;10106;51.332;12.336;2023-08-17T05:25:11;18.50;99.90
19888;DHT22;10106;51.332;12.336;2023-08-17T05:27:37;18.40;99.90
19888;DHT22;10106;51.332;12.336;2023-08-17T05:30:03;18.50;99.90
19888;DHT22;10106;51.332;12.336;2023-08-17T05:32:28;18.50;99.90
19888;DHT22;10106;51.332;12.336;2023-08-17T05:34:54;18.60;99.90
19888;DHT22;10106;51.332;12.336;2023-08-17T05:37:20;18.60;99.90
19888;DHT22;10106;51.332;12.336;2023-08-17T05:39:45;18.70;99.90
19888;DHT22;10106;51.332;12.336;2023-08-17T05:42:11;18.80;99.90
19888;DHT22;10106;51.332;12.336;2023-08-17T05:44:37;18.70;99.90
19888;DHT22;10106;51.332;12.336;2023-08-17T05:47:02;18.70;99.90
19888;DHT22;10106;51.332;12.336;2023-08-17T05:49:28;18.80;99.90
19888;DHT22;10106;51.332;12.336;2023-08-17T05:51:53;18.90;99.90
19888;DHT22;10106;51.332;12.336;2023-08-17T05:54:19;18.70;99.90
19888;DHT22;10106;51.332;12.336;2023-08-17T05:56:45;18.70;99.90
19888;DHT22;10106;51.332;12.336;2023-08-17T05:59:12;18.80;99.90
19888;DHT22;10106;51.332;12.336;2023-08-17T06:01:38;19.00;99.90
19888;DHT22;10106;51.332;12.336;2023-08-17T06:04:04;18.80;99.90
19888;DHT22;10106;51.332;12.336;2023-08-17T06:06:30;18.80;99.90
19888;DHT22;10106;51.332;12.336;2023-08-17T06:08:55;18.80;99.90
19888;DHT22;10106;51.332;12.336;2023-08-17T06:11:21;18.90;99.90
19888;DHT22;10106;51.332;12.336;2023-08-17T06:13:48;18.90;99.90
19888;DHT22;10106;51.332;12.336;2023-08-17T06:16:14;19.10;99.90
19888;DHT22;10106;51.332;12.336;2023-08-17T06:18:39;19.10;99.90
19888;DHT22;10106;51.332;12.336;2023-08-17T06:21:05;19.30;99.90
19888;DHT22;10106;51.332;12.336;2023-08-17T06:23:31;19.10;99.90
19888;DHT22;10106;51.332;12.336;2023-08-17T06:25:57;19.20;99.90
19888;DHT22;10106;51.332;12.336;2023-08-17T06:28:23;19.30;99.90
19888;DHT22;10106;51.332;12.336;2023-08-17T06:30:51;19.30;99.90
19888;DHT22;10106;51.332;12.336;2023-08-17T06:33:16;19.50;99.90
19888;DHT22;10106;51.332;12.336;2023-08-17T06:35:42;19.70;99.90
19888;DHT22;10106;51.332;12.336;2023-08-17T06:38:08;20.00;99.90
19888;DHT22;10106;51.332;12.336;2023-08-17T06:40:34;20.30;99.90
19888;DHT22;10106;51.332;12.336;2023-08-17T06:42:59;20.50;99.90
19888;DHT22;10106;51.332;12.336;2023-08-17T06:45:25;20.90;99.90
19888;DHT22;10106;51.332;12.336;2023-08-17T06:47:50;21.20;99.90
19888;DHT22;10106;51.332;12.336;2023-08-17T06:50:16;21.60;99.90
19888;DHT22;10106;51.332;12.336;2023-08-17T06:52:42;22.50;99.90
19888;DHT22;10106;51.332;12.336;2023-08-17T06:57:33;25.80;99.90
19888;DHT22;10106;51.332;12.336;2023-08-17T06:59:59;26.50;99.90
19888;DHT22;10106;51.332;12.336;2023-08-17T07:02:24;27.40;99.90
19888;DHT22;10106;51.332;12.336;2023-08-17T07:04:50;26.60;99.90
19888;DHT22;10106;51.332;12.336;2023-08-17T07:07:16;26.10;99.90
19888;DHT22;10106;51.332;12.336;2023-08-17T07:09:42;25.70;99.90
19888;DHT22;10106;51.332;12.336;2023-08-17T07:12:07;25.10;99.90
19888;DHT22;10106;51.332;12.336;2023-08-17T07:14:33;24.60;99.90
19888;DHT22;10106;51.332;12.336;2023-08-17T07:16:59;23.90;99.90
19888;DHT22;10106;51.332;12.336;2023-08-17T07:19:24;23.40;99.90
19888;DHT22;10106;51.332;12.336;2023-08-17T07:21:50;23.10;99.90
19888;DHT22;10106;51.332;12.336;2023-08-17T07:24:16;22.80;99.90
19888;DHT22;10106;51.332;12.336;2023-08-17T07:26:42;22.60;99.90
19888;DHT22;10106;51.332;12.336;2023-08-17T07:29:08;22.30;99.90
19888;DHT22;10106;51.332;12.336;2023-08-17T07:31:33;22.00;99.90
19888;DHT22;10106;51.332;12.336;2023-08-17T07:34:03;21.80;99.90
19888;DHT22;10106;51.332;12.336;2023-08-17T07:36:29;21.80;99.90
19888;DHT22;10106;51.332;12.336;2023-08-17T07:38:54;21.70;99.90
19888;DHT22;10106;51.332;12.336;2023-08-17T07:41:20;21.60;99.90
19888;DHT22;10106;51.332;12.336;2023-08-17T07:43:45;21.60;99.90
19888;DHT22;10106;51.332;12.336;2023-08-17T07:46:11;21.40;99.90
19888;DHT22;10106;51.332;12.336;2023-08-17T07:48:37;21.30;99.90
19888;DHT22;10106;51.332;12.336;2023-08-17T07:51:02;21.30;99.90
19888;DHT22;10106;51.332;12.336;2023-08-17T07:53:28;21.30;99.90
19888;DHT22;10106;51.332;12.336;2023-08-17T07:55:54;21.20;99.90
19888;DHT22;10106;51.332;12.336;2023-08-17T07:58:20;21.00;99.90
19888;DHT22;10106;51.332;12.336;2023-08-17T08:00:49;21.00;99.90
19888;DHT22;10106;51.332;12.336;2023-08-17T08:03:14;21.00;99.90
19888;DHT22;10106;51.332;12.336;2023-08-17T08:05:40;21.00;99.90
19888;DHT22;10106;51.332;12.336;2023-08-17T08:08:09;21.10;99.90
19888;DHT22;10106;51.332;12.336;2023-08-17T08:10:34;21.20;99.90
19888;DHT22;10106;51.332;12.336;2023-08-17T08:13:00;21.40;99.90
19888;DHT22;10106;51.332;12.336;2023-08-17T08:15:26;21.60;99.90
19888;DHT22;10106;51.332;12.336;2023-08-17T08:17:51;21.90;99.90
19888;DHT22;10106;51.332;12.336;2023-08-17T08:20:20;22.30;99.90
19888;DHT22;10106;51.332;12.336;2023-08-17T08:22:45;22.90;99.90
19888;DHT22;10106;51.332;12.336;2023-08-17T08:25:11;24.40;99.90
19888;DHT22;10106;51.332;12.336;2023-08-17T08:27:36;26.70;99.90
19888;DHT22;10106;51.332;12.336;2023-08-17T08:30:02;28.00;99.90
19888;DHT22;10106;51.332;12.336;2023-08-17T08:32:28;28.50;99.90
19888;DHT22;10106;51.332;12.336;2023-08-17T08:34:53;28.80;99.90
19888;DHT22;10106;51.332;12.336;2023-08-17T08:37:19;28.40;99.90
19888;DHT22;10106;51.332;12.336;2023-08-17T08:39:52;27.60;99.90
19888;DHT22;10106;51.332;12.336;2023-08-17T08:42:19;28.50;99.90
19888;DHT22;10106;51.332;12.336;2023-08-17T08:44:45;29.10;99.90
19888;DHT22;10106;51.332;12.336;2023-08-17T08:47:13;29.60;99.90
19888;DHT22;10106;51.332;12.336;2023-08-17T08:49:40;28.90;99.90
19888;DHT22;10106;51.332;12.336;2023-08-17T08:52:08;27.80;99.90
19888;DHT22;10106;51.332;12.336;2023-08-17T08:54:38;27.20;99.90
19888;DHT22;10106;51.332;12.336;2023-08-17T08:57:05;27.00;99.90
19888;DHT22;10106;51.332;12.336;2023-08-17T08:59:33;27.10;99.90
19888;DHT22;10106;51.332;12.336;2023-08-17T09:01:59;27.20;99.90
19888;DHT22;10106;51.332;12.336;2023-08-17T09:04:25;26.90;99.90
19888;DHT22;10106;51.332;12.336;2023-08-17T09:06:51;26.90;99.90
19888;DHT22;10106;51.332;12.336;2023-08-17T09:09:18;27.90;99.90
19888;DHT22;10106;51.332;12.336;2023-08-17T09:11:43;30.10;99.90
19888;DHT22;10106;51.332;12.336;2023-08-17T09:14:09;30.90;99.90
19888;DHT22;10106;51.332;12.336;2023-08-17T09:16:36;31.00;99.90
19888;DHT22;10106;51.332;12.336;2023-08-17T09:19:01;30.40;99.90
19888;DHT22;10106;51.332;12.336;2023-08-17T09:21:30;29.30;99.90
19888;DHT22;10106;51.332;12.336;2023-08-17T09:23:56;28.40;99.90
19888;DHT22;10106;51.332;12.336;2023-08-17T09:26:22;27.90;99.90
19888;DHT22;10106;51.332;12.336;2023-08-17T09:28:51;28.50;99.90
19888;DHT22;10106;51.332;12.336;2023-08-17T09:31:20;28.90;99.90
19888;DHT22;10106;51.332;12.336;2023-08-17T09:33:48;29.80;99.90
19888;DHT22;10106;51.332;12.336;2023-08-17T09:36:15;30.40;99.90
19888;DHT22;10106;51.332;12.336;2023-08-17T09:38:40;31.70;99.90
19888;DHT22;10106;51.332;12.336;2023-08-17T09:41:06;32.30;99.90
19888;DHT22;10106;51.332;12.336;2023-08-17T09:43:32;33.20;99.90
19888;DHT22;10106;51.332;12.336;2023-08-17T09:45:59;34.00;99.90
19888;DHT22;10106;51.332;12.336;2023-08-17T09:48:27;34.00;99.90
19888;DHT22;10106;51.332;12.336;2023-08-17T09:50:53;34.50;99.90
19888;DHT22;10106;51.332;12.336;2023-08-17T09:53:20;34.80;97.50
19888;DHT22;10106;51.332;12.336;2023-08-17T09:55:46;34.00;99.30
19888;DHT22;10106;51.332;12.336;2023-08-17T09:58:12;33.20;99.90
19888;DHT22;10106;51.332;12.336;2023-08-17T10:00:45;32.80;99.90
19888;DHT22;10106;51.332;12.336;2023-08-17T10:03:11;33.80;99.90
19888;DHT22;10106;51.332;12.336;2023-08-17T10:05:39;35.80;96.60
19888;DHT22;10106;51.332;12.336;2023-08-17T10:08:06;34.40;98.10
19888;DHT22;10106;51.332;12.336;2023-08-17T10:10:34;33.80;99.90
19888;DHT22;10106;51.332;12.336;2023-08-17T10:13:10;33.10;99.90
19888;DHT22;10106;51.332;12.336;2023-08-17T10:15:55;32.70;99.90
19888;DHT22;10106;51.332;12.336;2023-08-17T10:21:08;30.80;99.90
19888;DHT22;10106;51.332;12.336;2023-08-17T10:23:35;29.90;99.90
19888;DHT22;10106;51.332;12.336;2023-08-17T10:26:01;29.50;99.90
19888;DHT22;10106;51.332;12.336;2023-08-17T10:28:28;29.40;99.90
19888;DHT22;10106;51.332;12.336;2023-08-17T10:30:54;29.30;99.90
19888;DHT22;10106;51.332;12.336;2023-08-17T10:33:20;29.20;99.90
19888;DHT22;10106;51.332;12.336;2023-08-17T10:35:46;29.10;99.90
19888;DHT22;10106;51.332;12.336;2023-08-17T10:38:12;29.10;99.90
19888;DHT22;10106;51.332;12.336;2023-08-17T10:40:39;29.00;99.90
19888;DHT22;10106;51.332;12.336;2023-08-17T10:43:05;29.00;99.90
19888;DHT22;10106;51.332;12.336;2023-08-17T10:45:31;28.80;99.90
19888;DHT22;10106;51.332;12.336;2023-08-17T10:50:32;28.70;99.90
19888;DHT22;10106;51.332;12.336;2023-08-17T10:53:04;28.30;99.90
19888;DHT22;10106;51.332;12.336;2023-08-17T10:55:36;28.20;99.90
19888;DHT22;10106;51.332;12.336;2023-08-17T10:58:02;28.20;99.90
19888;DHT22;10106;51.332;12.336;2023-08-17T11:00:36;28.00;99.90
19888;DHT22;10106;51.332;12.336;2023-08-17T11:03:10;27.90;99.90
19888;DHT22;10106;51.332;12.336;2023-08-17T11:08:02;28.00;99.90
19888;DHT22;10106;51.332;12.336;2023-08-17T11:10:28;28.00;99.90
19888;DHT22;10106;51.332;12.336;2023-08-17T11:12:55;28.00;99.90
19888;DHT22;10106;51.332;12.336;2023-08-17T11:15:40;28.00;99.90
19888;DHT22;10106;51.332;12.336;2023-08-17T11:18:10;28.10;99.90
19888;DHT22;10106;51.332;12.336;2023-08-17T11:20:37;28.10;99.90
19888;DHT22;10106;51.332;12.336;2023-08-17T11:23:03;28.20;99.90
19888;DHT22;10106;51.332;12.336;2023-08-17T11:25:29;28.30;99.90
19888;DHT22;10106;51.332;12.336;2023-08-17T11:27:55;28.50;99.90
19888;DHT22;10106;51.332;12.336;2023-08-17T11:30:20;28.60;99.90
19888;DHT22;10106;51.332;12.336;2023-08-17T11:32:49;28.70;99.90
19888;DHT22;10106;51.332;12.336;2023-08-17T11:35:15;28.70;99.90
19888;DHT22;10106;51.332;12.336;2023-08-17T11:37:40;28.70;99.90
19888;DHT22;10106;51.332;12.336;2023-08-17T11:40:06;28.70;99.90
19888;DHT22;10106;51.332;12.336;2023-08-17T11:42:33;28.60;99.90
19888;DHT22;10106;51.332;12.336;2023-08-17T11:44:59;28.60;99.90
19888;DHT22;10106;51.332;12.336;2023-08-17T11:47:25;28.60;99.90
19888;DHT22;10106;51.332;12.336;2023-08-17T11:49:50;28.60;99.90
19888;DHT22;10106;51.332;12.336;2023-08-17T11:52:16;28.80;99.90
19888;DHT22;10106;51.332;12.336;2023-08-17T11:54:42;28.60;99.90
19888;DHT22;10106;51.332;12.336;2023-08-17T11:57:07;28.50;99.90
19888;DHT22;10106;51.332;12.336;2023-08-17T11:59:33;28.50;99.90
19888;DHT22;10106;51.332;12.336;2023-08-17T12:01:59;28.50;99.90
19888;DHT22;10106;51.332;12.336;2023-08-17T12:04:24;28.40;99.90
19888;DHT22;10106;51.332;12.336;2023-08-17T12:06:50;28.50;99.90
19888;DHT22;10106;51.332;12.336;2023-08-17T12:09:17;28.50;99.90
19888;DHT22;10106;51.332;12.336;2023-08-17T12:11:44;28.60;99.90
19888;DHT22;10106;51.332;12.336;2023-08-17T12:14:10;28.60;99.90
19888;DHT22;10106;51.332;12.336;2023-08-17T12:16:57;28.70;99.90
19888;DHT22;10106;51.332;12.336;2023-08-17T12:19:24;28.50;99.90
19888;DHT22;10106;51.332;12.336;2023-08-17T12:21:50;28.40;99.90
19888;DHT22;10106;51.332;12.336;2023-08-17T12:24:15;28.50;99.90
19888;DHT22;10106;51.332;12.336;2023-08-17T12:26:42;28.60;99.90
19888;DHT22;10106;51.332;12.336;2023-08-17T12:29:08;28.80;99.90
19888;DHT22;10106;51.332;12.336;2023-08-17T12:31:34;28.90;99.90
19888;DHT22;10106;51.332;12.336;2023-08-17T12:34:00;29.00;99.90
19888;DHT22;10106;51.332;12.336;2023-08-17T12:36:26;29.10;99.90
19888;DHT22;10106;51.332;12.336;2023-08-17T12:38:51;29.00;99.90
19888;DHT22;10106;51.332;12.336;2023-08-17T12:41:17;28.90;99.90
19888;DHT22;10106;51.332;12.336;2023-08-17T12:43:45;28.90;99.90
19888;DHT22;10106;51.332;12.336;2023-08-17T12:46:11;28.90;99.90
19888;DHT22;10106;51.332;12.336;2023-08-17T12:48:37;28.90;99.90
19888;DHT22;10106;51.332;12.336;2023-08-17T12:51:03;28.80;99.90
19888;DHT22;10106;51.332;12.336;2023-08-17T12:53:29;28.80;99.90
19888;DHT22;10106;51.332;12.336;2023-08-17T12:55:55;28.80;99.90
19888;DHT22;10106;51.332;12.336;2023-08-17T12:58:20;28.90;99.90
19888;DHT22;10106;51.332;12.336;2023-08-17T13:00:46;29.00;99.90
19888;DHT22;10106;51.332;12.336;2023-08-17T13:03:12;29.30;99.90
19888;DHT22;10106;51.332;12.336;2023-08-17T13:05:37;29.50;99.90
19888;DHT22;10106;51.332;12.336;2023-08-17T13:08:05;29.60;99.90
19888;DHT22;10106;51.332;12.336;2023-08-17T13:10:30;29.40;99.90
19888;DHT22;10106;51.332;12.336;2023-08-17T13:12:56;29.20;99.90
19888;DHT22;10106;51.332;12.336;2023-08-17T13:15:24;29.00;99.90
19888;DHT22;10106;51.332;12.336;2023-08-17T13:17:50;28.90;99.90
19888;DHT22;10106;51.332;12.336;2023-08-17T13:20:16;29.00;99.90
19888;DHT22;10106;51.332;12.336;2023-08-17T13:22:42;29.40;99.90
19888;DHT22;10106;51.332;12.336;2023-08-17T13:25:07;29.50;99.90
19888;DHT22;10106;51.332;12.336;2023-08-17T13:27:33;29.60;99.90
19888;DHT22;10106;51.332;12.336;2023-08-17T13:30:02;29.60;99.90
19888;DHT22;10106;51.332;12.336;2023-08-17T13:32:28;29.70;99.90
19888;DHT22;10106;51.332;12.336;2023-08-17T13:34:54;29.80;99.90
19888;DHT22;10106;51.332;12.336;2023-08-17T13:37:19;29.70;99.90
19888;DHT22;10106;51.332;12.336;2023-08-17T13:39:45;29.70;99.90
19888;DHT22;10106;51.332;12.336;2023-08-17T13:42:11;29.60;99.90
19888;DHT22;10106;51.332;12.336;2023-08-17T13:44:37;29.50;99.90
19888;DHT22;10106;51.332;12.336;2023-08-17T13:47:03;29.30;99.90
19888;DHT22;10106;51.332;12.336;2023-08-17T13:49:29;29.00;99.90
19888;DHT22;10106;51.332;12.336;2023-08-17T13:51:55;28.70;99.90
19888;DHT22;10106;51.332;12.336;2023-08-17T13:54:22;28.40;99.90
19888;DHT22;10106;51.332;12.336;2023-08-17T13:56:47;28.30;99.90
19888;DHT22;10106;51.332;12.336;2023-08-17T13:59:15;28.20;99.90
19888;DHT22;10106;51.332;12.336;2023-08-17T14:01:41;28.10;99.90
19888;DHT22;10106;51.332;12.336;2023-08-17T14:04:07;28.00;99.90
19888;DHT22;10106;51.332;12.336;2023-08-17T14:06:39;28.00;99.90
19888;DHT22;10106;51.332;12.336;2023-08-17T14:09:05;27.90;99.90
19888;DHT22;10106;51.332;12.336;2023-08-17T14:11:31;28.00;99.90
19888;DHT22;10106;51.332;12.336;2023-08-17T14:13:56;27.90;99.90
19888;DHT22;10106;51.332;12.336;2023-08-17T14:16:22;27.90;99.90
19888;DHT22;10106;51.332;12.336;2023-08-17T14:18:48;27.90;99.90
19888;DHT22;10106;51.332;12.336;2023-08-17T14:21:13;27.90;99.90
19888;DHT22;10106;51.332;12.336;2023-08-17T14:23:39;27.90;99.90
19888;DHT22;10106;51.332;12.336;2023-08-17T14:26:05;27.90;99.90
19888;DHT22;10106;51.332;12.336;2023-08-17T14:28:31;28.00;99.90
19888;DHT22;10106;51.332;12.336;2023-08-17T14:30:57;27.90;99.90
19888;DHT22;10106;51.332;12.336;2023-08-17T14:33:24;27.90;99.90
19888;DHT22;10106;51.332;12.336;2023-08-17T14:35:53;27.90;99.90
19888;DHT22;10106;51.332;12.336;2023-08-17T14:38:24;27.90;99.90
19888;DHT22;10106;51.332;12.336;2023-08-17T14:40:50;28.00;99.90
19888;DHT22;10106;51.332;12.336;2023-08-17T14:43:16;27.90;99.90
19888;DHT22;10106;51.332;12.336;2023-08-17T14:45:42;27.80;99.90
19888;DHT22;10106;51.332;12.336;2023-08-17T14:48:08;27.80;99.90
19888;DHT22;10106;51.332;12.336;2023-08-17T14:50:34;27.80;99.90
19888;DHT22;10106;51.332;12.336;2023-08-17T14:53:00;27.70;99.90
19888;DHT22;10106;51.332;12.336;2023-08-17T14:55:31;27.70;99.90
19888;DHT22;10106;51.332;12.336;2023-08-17T14:57:57;27.60;99.90
19888;DHT22;10106;51.332;12.336;2023-08-17T15:00:23;27.60;99.90
19888;DHT22;10106;51.332;12.336;2023-08-17T15:02:55;27.50;99.90
19888;DHT22;10106;51.332;12.336;2023-08-17T15:05:20;27.40;99.90
19888;DHT22;10106;51.332;12.336;2023-08-17T15:07:47;27.30;99.90
19888;DHT22;10106;51.332;12.336;2023-08-17T15:10:12;27.10;99.90
19888;DHT22;10106;51.332;12.336;2023-08-17T15:12:38;27.00;99.90
19888;DHT22;10106;51.332;12.336;2023-08-17T15:15:05;26.90;99.90
19888;DHT22;10106;51.332;12.336;2023-08-17T15:17:30;26.80;99.90
19888;DHT22;10106;51.332;12.336;2023-08-17T15:19:57;26.60;99.90
19888;DHT22;10106;51.332;12.336;2023-08-17T15:22:23;26.60;99.90
19888;DHT22;10106;51.332;12.336;2023-08-17T15:24:49;26.50;99.90
19888;DHT22;10106;51.332;12.336;2023-08-17T15:27:15;26.40;99.90
19888;DHT22;10106;51.332;12.336;2023-08-17T15:29:41;26.30;99.90
19888;DHT22;10106;51.332;12.336;2023-08-17T15:32:07;26.20;99.90
19888;DHT22;10106;51.332;12.336;2023-08-17T15:34:33;26.10;99.90
19888;DHT22;10106;51.332;12.336;2023-08-17T15:36:59;26.10;99.90
19888;DHT22;10106;51.332;12.336;2023-08-17T15:39:28;26.00;99.90
19888;DHT22;10106;51.332;12.336;2023-08-17T15:41:54;25.90;99.90
19888;DHT22;10106;51.332;12.336;2023-08-17T15:44:19;25.80;99.90
19888;DHT22;10106;51.332;12.336;2023-08-17T15:46:45;25.80;99.90
19888;DHT22;10106;51.332;12.336;2023-08-17T15:49:11;25.70;99.90
19888;DHT22;10106;51.332;12.336;2023-08-17T15:51:39;25.70;99.90
19888;DHT22;10106;51.332;12.336;2023-08-17T15:54:05;25.60;99.90
19888;DHT22;10106;51.332;12.336;2023-08-17T15:56:31;25.60;99.90
19888;DHT22;10106;51.332;12.336;2023-08-17T15:58:57;25.50;99.90
19888;DHT22;10106;51.332;12.336;2023-08-17T16:01:23;25.50;99.90
19888;DHT22;10106;51.332;12.336;2023-08-17T16:03:49;25.40;99.90
19888;DHT22;10106;51.332;12.336;2023-08-17T16:06:15;25.40;99.90
19888;DHT22;10106;51.332;12.336;2023-08-17T16:08:42;25.30;99.90
19888;DHT22;10106;51.332;12.336;2023-08-17T16:11:07;25.30;99.90
19888;DHT22;10106;51.332;12.336;2023-08-17T16:13:33;25.30;99.90
19888;DHT22;10106;51.332;12.336;2023-08-17T16:15:59;25.30;99.90
19888;DHT22;10106;51.332;12.336;2023-08-17T16:18:25;25.20;99.90
19888;DHT22;10106;51.332;12.336;2023-08-17T16:20:51;25.20;99.90
19888;DHT22;10106;51.332;12.336;2023-08-17T16:23:17;25.20;99.90
19888;DHT22;10106;51.332;12.336;2023-08-17T16:25:43;25.20;99.90
19888;DHT22;10106;51.332;12.336;2023-08-17T16:28:09;25.20;99.90
19888;DHT22;10106;51.332;12.336;2023-08-17T16:30:34;25.20;99.90
19888;DHT22;10106;51.332;12.336;2023-08-17T16:33:01;25.20;99.90
19888;DHT22;10106;51.332;12.336;2023-08-17T16:35:27;25.20;99.90
19888;DHT22;10106;51.332;12.336;2023-08-17T16:37:52;25.20;99.90
19888;DHT22;10106;51.332;12.336;2023-08-17T16:40:18;25.10;99.90
19888;DHT22;10106;51.332;12.336;2023-08-17T16:42:44;25.10;99.90
19888;DHT22;10106;51.332;12.336;2023-08-17T16:45:12;25.00;99.90
19888;DHT22;10106;51.332;12.336;2023-08-17T16:47:37;25.00;99.90
19888;DHT22;10106;51.332;12.336;2023-08-17T16:50:03;25.00;99.90
19888;DHT22;10106;51.332;12.336;2023-08-17T16:52:29;24.90;99.90
19888;DHT22;10106;51.332;12.336;2023-08-17T16:54:55;24.90;99.90
19888;DHT22;10106;51.332;12.336;2023-08-17T16:57:20;24.90;99.90
19888;DHT22;10106;51.332;12.336;2023-08-17T16:59:46;24.80;99.90
19888;DHT22;10106;51.332;12.336;2023-08-17T17:02:11;24.70;99.90
19888;DHT22;10106;51.332;12.336;2023-08-17T17:04:43;24.70;99.90
19888;DHT22;10106;51.332;12.336;2023-08-17T17:07:09;24.70;99.90
19888;DHT22;10106;51.332;12.336;2023-08-17T17:09:35;24.60;99.90
19888;DHT22;10106;51.332;12.336;2023-08-17T17:12:01;24.60;99.90
19888;DHT22;10106;51.332;12.336;2023-08-17T17:14:27;24.50;99.90
19888;DHT22;10106;51.332;12.336;2023-08-17T17:16:53;24.50;99.90
19888;DHT22;10106;51.332;12.336;2023-08-17T17:19:19;24.50;99.90
19888;DHT22;10106;51.332;12.336;2023-08-17T17:21:45;24.50;99.90
19888;DHT22;10106;51.332;12.336;2023-08-17T17:24:10;24.50;99.90
19888;DHT22;10106;51.332;12.336;2023-08-17T17:26:36;24.40;99.90
19888;DHT22;10106;51.332;12.336;2023-08-17T17:29:06;24.40;99.90
19888;DHT22;10106;51.332;12.336;2023-08-17T17:31:40;24.40;99.90
19888;DHT22;10106;51.332;12.336;2023-08-17T17:34:06;24.40;99.90
19888;DHT22;10106;51.332;12.336;2023-08-17T17:36:32;24.30;99.90
19888;DHT22;10106;51.332;12.336;2023-08-17T17:38:58;24.30;99.90
19888;DHT22;10106;51.332;12.336;2023-08-17T17:41:24;24.20;99.90
19888;DHT22;10106;51.332;12.336;2023-08-17T17:43:50;24.20;99.90
19888;DHT22;10106;51.332;12.336;2023-08-17T17:46:16;24.20;99.90
19888;DHT22;10106;51.332;12.336;2023-08-17T17:48:44;24.20;99.90
19888;DHT22;10106;51.332;12.336;2023-08-17T17:51:10;24.20;99.90
19888;DHT22;10106;51.332;12.336;2023-08-17T17:53:35;24.20;99.90
19888;DHT22;10106;51.332;12.336;2023-08-17T17:56:01;24.20;99.90
19888;DHT22;10106;51.332;12.336;2023-08-17T17:58:27;24.20;99.90
19888;DHT22;10106;51.332;12.336;2023-08-17T18:00:52;24.10;99.90
19888;DHT22;10106;51.332;12.336;2023-08-17T18:03:18;24.10;99.90
19888;DHT22;10106;51.332;12.336;2023-08-17T18:05:44;24.10;99.90
19888;DHT22;10106;51.332;12.336;2023-08-17T18:08:10;24.10;99.90
19888;DHT22;10106;51.332;12.336;2023-08-17T18:10:37;24.10;99.90
19888;DHT22;10106;51.332;12.336;2023-08-17T18:13:03;24.00;99.90
19888;DHT22;10106;51.332;12.336;2023-08-17T18:15:29;24.10;99.90
19888;DHT22;10106;51.332;12.336;2023-08-17T18:17:55;24.00;99.90
19888;DHT22;10106;51.332;12.336;2023-08-17T18:20:20;24.00;99.90
19888;DHT22;10106;51.332;12.336;2023-08-17T18:22:46;24.00;99.90
19888;DHT22;10106;51.332;12.336;2023-08-17T18:25:12;23.90;99.90
19888;DHT22;10106;51.332;12.336;2023-08-17T18:27:39;23.80;99.90
19888;DHT22;10106;51.332;12.336;2023-08-17T18:30:05;23.80;99.90
19888;DHT22;10106;51.332;12.336;2023-08-17T18:32:31;23.50;99.90
19888;DHT22;10106;51.332;12.336;2023-08-17T18:34:56;23.30;99.90
19888;DHT22;10106;51.332;12.336;2023-08-17T18:37:22;23.10;99.90
19888;DHT22;10106;51.332;12.336;2023-08-17T18:39:47;22.80;99.90
19888;DHT22;10106;51.332;12.336;2023-08-17T18:42:22;22.70;99.90
19888;DHT22;10106;51.332;12.336;2023-08-17T18:44:48;22.50;99.90
19888;DHT22;10106;51.332;12.336;2023-08-17T18:47:15;22.30;99.90
19888;DHT22;10106;51.332;12.336;2023-08-17T18:49:41;22.20;99.90
19888;DHT22;10106;51.332;12.336;2023-08-17T18:52:07;22.00;99.90
19888;DHT22;10106;51.332;12.336;2023-08-17T18:54:34;21.90;99.90
19888;DHT22;10106;51.332;12.336;2023-08-17T18:57:02;21.70;99.90
19888;DHT22;10106;51.332;12.336;2023-08-17T18:59:28;21.60;99.90
19888;DHT22;10106;51.332;12.336;2023-08-17T19:01:56;21.50;99.90
19888;DHT22;10106;51.332;12.336;2023-08-17T19:04:22;21.30;99.90
19888;DHT22;10106;51.332;12.336;2023-08-17T19:06:51;21.00;99.90
19888;DHT22;10106;51.332;12.336;2023-08-17T19:44:54;19.40;99.90
19888;DHT22;10106;51.332;12.336;2023-08-17T19:47:20;19.30;99.90
19888;DHT22;10106;51.332;12.336;2023-08-17T19:49:45;19.30;99.90
19888;DHT22;10106;51.332;12.336;2023-08-17T19:52:12;19.20;99.90
19888;DHT22;10106;51.332;12.336;2023-08-17T19:54:38;19.20;99.90
19888;DHT22;10106;51.332;12.336;2023-08-17T19:57:04;19.10;99.90
19888;DHT22;10106;51.332;12.336;2023-08-17T19:59:30;19.10;99.90
19888;DHT22;10106;51.332;12.336;2023-08-17T20:01:56;19.20;99.90
19888;DHT22;10106;51.332;12.336;2023-08-17T20:04:22;19.20;99.90
19888;DHT22;10106;51.332;12.336;2023-08-17T20:06:48;19.30;99.90
19888;DHT22;10106;51.332;12.336;2023-08-17T20:09:14;19.20;99.90
19888;DHT22;10106;51.332;12.336;2023-08-17T20:11:40;19.20;99.90
19888;DHT22;10106;51.332;12.336;2023-08-17T20:14:06;19.20;99.90
19888;DHT22;10106;51.332;12.336;2023-08-17T20:16:40;19.20;99.90
19888;DHT22;10106;51.332;12.336;2023-08-17T20:19:05;19.30;99.90
19888;DHT22;10106;51.332;12.336;2023-08-17T20:21:33;19.30;99.90
19888;DHT22;10106;51.332;12.336;2023-08-17T20:24:01;19.30;99.90
19888;DHT22;10106;51.332;12.336;2023-08-17T20:28:56;19.50;99.90
19888;DHT22;10106;51.332;12.336;2023-08-17T20:31:22;19.50;99.90
19888;DHT22;10106;51.332;12.336;2023-08-17T20:33:48;19.50;99.90
19888;DHT22;10106;51.332;12.336;2023-08-17T20:36:14;19.40;99.90
19888;DHT22;10106;51.332;12.336;2023-08-17T20:38:41;19.50;99.90
19888;DHT22;10106;51.332;12.336;2023-08-17T20:41:08;19.50;99.90
19888;DHT22;10106;51.332;12.336;2023-08-17T20:43:34;19.50;99.90
19888;DHT22;10106;51.332;12.336;2023-08-17T20:46:00;19.50;99.90
19888;DHT22;10106;51.332;12.336;2023-08-17T20:48:27;19.50;99.90
19888;DHT22;10106;51.332;12.336;2023-08-17T20:50:53;19.50;99.90
19888;DHT22;10106;51.332;12.336;2023-08-17T20:53:19;19.50;99.90
19888;DHT22;10106;51.332;12.336;2023-08-17T20:55:45;19.60;99.90
19888;DHT22;10106;51.332;12.336;2023-08-17T20:58:12;19.60;99.90
19888;DHT22;10106;51.332;12.336;2023-08-17T21:00:38;19.60;99.90
19888;DHT22;10106;51.332;12.336;2023-08-17T21:03:03;19.60;99.90
19888;DHT22;10106;51.332;12.336;2023-08-17T21:05:29;19.60;99.90